Trinidad, Trinidad and Tobago
Current Conditions -  °F | °C
As of 1:00 PM on Wednesday 26 Nov 2014 (Local Time) from TTPP Reporting Station
Few Clouds Few Clouds  
Wind Chill: 90°   Ceiling: Unl
Heat Index: 96°   Visibility: 6mi
Dew Point: 72°   Wind: 17mph
Humidity: 55%   Direction: 130°SE
Pressure: 29.85"   Gusts: NA
Location:  10.62°N, 61.35°W
Report Text: TTPP 261700Z 13015KT 9999 FEW018 32/22 Q1011 NOSIG RMK FU-NNE
Loading
Personal Weather Stations






























Interactive Weather Map New forecast layout! Learn more

10-Day Weather Forecast

Advertisements
Track Severe Weather on mobile